createdAt,value
2022-12-13T00:01:54.039Z,11.50
2022-12-13T00:04:24.570Z,11.53
2022-12-13T00:06:54.396Z,8.97
2022-12-13T00:09:23.038Z,9.07
2022-12-13T00:11:52.166Z,10.47
2022-12-13T00:14:20.301Z,10.00
2022-12-13T00:16:50.733Z,9.73
2022-12-13T00:19:20.748Z,10.43
2022-12-13T00:21:49.455Z,10.93
2022-12-13T00:24:17.611Z,11.07
2022-12-13T00:26:45.896Z,9.77
2022-12-13T00:29:15.049Z,10.27
2022-12-13T00:34:32.663Z,10.73
2022-12-13T00:37:00.788Z,11.13
2022-12-13T00:39:29.955Z,10.60
2022-12-13T00:41:58.583Z,9.70
2022-12-13T00:44:27.781Z,11.77
2022-12-13T00:46:56.499Z,11.40
2022-12-13T00:49:25.577Z,10.93
2022-12-13T00:51:55.045Z,12.10
2022-12-13T00:54:23.203Z,11.73
2022-12-13T00:56:52.258Z,11.20
2022-12-13T00:59:21.166Z,12.07
2022-12-13T01:01:49.509Z,12.23
2022-12-13T01:04:17.682Z,11.27
2022-12-13T01:06:49.731Z,11.57
2022-12-13T01:09:22.901Z,11.50
2022-12-13T01:11:51.713Z,11.43
2022-12-13T01:14:20.425Z,12.10
2022-12-13T01:16:48.616Z,11.53
2022-12-13T01:19:17.393Z,10.90
2022-12-13T01:21:45.531Z,11.63
2022-12-13T01:24:13.654Z,10.67
2022-12-13T01:26:43.221Z,11.03
2022-12-13T01:29:11.496Z,10.93
2022-12-13T01:31:41.502Z,11.13
2022-12-13T01:34:11.343Z,11.20
2022-12-13T01:36:40.665Z,11.80
2022-12-13T01:39:14.564Z,9.97
2022-12-13T01:41:46.578Z,11.93
2022-12-13T01:45:00.331Z,10.80
2022-12-13T01:47:37.355Z,11.07
2022-12-13T01:50:12.848Z,10.43
2022-12-13T01:52:43.432Z,10.10
2022-12-13T01:55:13.317Z,10.50
2022-12-13T01:57:47.774Z,9.50
2022-12-13T02:00:18.348Z,8.80
2022-12-13T02:02:49.124Z,8.97
2022-12-13T02:05:25.309Z,8.77
2022-12-13T02:07:54.567Z,8.13
2022-12-13T02:10:22.912Z,8.97
2022-12-13T02:12:52.941Z,7.20
2022-12-13T02:15:22.854Z,7.33
2022-12-13T02:18:27.409Z,7.07
2022-12-13T02:21:20.674Z,6.63
2022-12-13T02:24:35.377Z,7.30
2022-12-13T02:27:12.058Z,6.23
